createdAt,value
2022-09-03T00:00:28.022Z,60.74
2022-09-03T00:03:04.432Z,60.28
2022-09-03T00:05:40.069Z,60.76
2022-09-03T00:08:13.363Z,60.44
2022-09-03T00:10:48.029Z,59.88
2022-09-03T00:13:21.310Z,60.64
2022-09-03T00:15:53.471Z,61.05
2022-09-03T00:18:24.902Z,60.46
2022-09-03T00:20:59.499Z,60.60
2022-09-03T00:23:32.153Z,60.90
2022-09-03T00:26:17.835Z,60.75
2022-09-03T00:28:52.849Z,60.54
2022-09-03T00:31:27.327Z,60.41
2022-09-03T00:33:59.759Z,60.11
2022-09-03T00:36:35.623Z,60.22
2022-09-03T00:39:03.699Z,60.61
2022-09-03T00:41:37.784Z,60.77
2022-09-03T00:44:32.140Z,60.24
2022-09-03T00:47:10.985Z,60.71
2022-09-03T00:49:49.413Z,60.61
2022-09-03T00:52:29.644Z,61.71
2022-09-03T00:55:08.217Z,60.70
2022-09-03T00:57:49.133Z,61.49
2022-09-03T01:00:20.284Z,60.62
2022-09-03T01:03:08.054Z,60.70
2022-09-03T01:05:49.116Z,60.42
2022-09-03T01:08:34.456Z,60.73
2022-09-03T01:11:13.688Z,60.14
2022-09-03T01:13:47.571Z,60.92
2022-09-03T01:16:28.715Z,60.28
2022-09-03T01:19:06.636Z,61.06
2022-09-03T01:21:52.196Z,60.83
2022-09-03T01:24:43.665Z,61.34
2022-09-03T01:27:23.384Z,61.32
2022-09-03T01:30:03.976Z,61.73
2022-09-03T01:32:38.442Z,61.91
2022-09-03T01:35:16.414Z,62.38
2022-09-03T01:37:58.707Z,61.83
2022-09-03T01:40:36.776Z,62.53
2022-09-03T01:43:23.743Z,63.37
2022-09-03T01:46:00.543Z,63.64
2022-09-03T01:48:44.061Z,63.92
2022-09-03T01:51:19.581Z,64.56
2022-09-03T01:54:07.701Z,63.84
2022-09-03T01:56:52.040Z,64.35
2022-09-03T01:59:27.565Z,64.82
2022-09-03T02:02:03.415Z,64.93
2022-09-03T02:04:36.619Z,65.66
2022-09-03T02:07:06.015Z,65.72
2022-09-03T02:09:34.189Z,65.95
2022-09-03T02:12:09.303Z,66.20
2022-09-03T02:14:37.787Z,66.46
2022-09-03T02:17:08.815Z,66.71
2022-09-03T02:19:38.115Z,66.75
2022-09-03T02:22:07.250Z,65.83
2022-09-03T02:24:35.388Z,65.82
2022-09-03T02:27:04.102Z,65.39
2022-09-03T02:29:32.672Z,64.96
2022-09-03T02:32:00.899Z,65.47
2022-09-03T02:34:31.349Z,64.74
2022-09-03T02:36:59.495Z,64.50
2022-09-03T02:39:28.956Z,64.87
2022-09-03T02:42:04.169Z,64.59
2022-09-03T02:44:34.650Z,64.66
2022-09-03T02:47:06.586Z,65.13
2022-09-03T02:49:36.754Z,64.64
2022-09-03T02:52:09.501Z,63.58
2022-09-03T02:54:39.877Z,64.37
2022-09-03T02:57:09.178Z,65.53
2022-09-03T02:59:38.065Z,65.92
2022-09-03T03:02:06.371Z,65.64
2022-09-03T03:04:36.039Z,65.74
2022-09-03T03:07:04.350Z,66.07
2022-09-03T03:09:32.425Z,66.23
2022-09-03T03:12:00.572Z,66.23
2022-09-03T03:14:28.696Z,66.28
2022-09-03T03:16:56.882Z,66.13
2022-09-03T03:19:24.991Z,67.76
2022-09-03T03:21:54.975Z,66.51
2022-09-03T03:24:23.018Z,67.96
2022-09-03T03:26:51.080Z,67.13
2022-09-03T03:29:19.913Z,67.05
2022-09-03T03:31:47.943Z,66.48
2022-09-03T03:34:16.038Z,66.60
2022-09-03T03:36:44.139Z,66.90
2022-09-03T03:39:13.657Z,67.24
2022-09-03T03:41:41.746Z,67.47
2022-09-03T03:44:10.302Z,67.78
2022-09-03T03:46:40.081Z,68.33
2022-09-03T03:49:11.825Z,68.31
2022-09-03T03:51:40.841Z,68.54
2022-09-03T03:54:08.911Z,68.13
2022-09-03T03:56:38.411Z,68.23
2022-09-03T03:59:06.510Z,68.43
2022-09-03T04:01:34.726Z,68.07
2022-09-03T04:04:03.074Z,68.41
2022-09-03T04:06:31.125Z,68.73
2022-09-03T04:08:59.252Z,69.09
2022-09-03T04:11:27.669Z,69.01
2022-09-03T04:13:57.205Z,69.00
2022-09-03T04:16:27.038Z,69.35
2022-09-03T04:18:56.448Z,69.49
2022-09-03T04:21:28.387Z,69.92
2022-09-03T04:23:57.793Z,70.03
2022-09-03T04:26:28.450Z,69.50
2022-09-03T04:28:57.976Z,69.82
2022-09-03T04:31:26.395Z,70.04
2022-09-03T04:33:55.014Z,69.93
2022-09-03T04:36:25.097Z,69.84
2022-09-03T04:38:54.639Z,70.08
2022-09-03T04:41:25.034Z,70.40
2022-09-03T04:43:54.211Z,70.54
2022-09-03T04:46:26.180Z,70.22
2022-09-03T04:48:55.711Z,69.85
2022-09-03T04:51:27.302Z,70.40
2022-09-03T04:53:57.429Z,70.39
2022-09-03T04:56:27.555Z,70.55
2022-09-03T04:58:57.466Z,70.47
2022-09-03T05:01:28.872Z,70.99
2022-09-03T05:03:58.170Z,71.00
2022-09-03T05:06:27.188Z,70.94
2022-09-03T05:08:56.571Z,70.81
2022-09-03T05:11:26.275Z,70.88
2022-09-03T05:13:56.371Z,71.20
2022-09-03T05:16:28.371Z,71.95
2022-09-03T05:18:59.653Z,71.67
2022-09-03T05:21:30.008Z,71.62
2022-09-03T05:23:58.428Z,71.52
2022-09-03T05:26:29.071Z,71.62
2022-09-03T05:28:59.519Z,71.43
2022-09-03T05:31:31.781Z,71.83
2022-09-03T05:34:02.377Z,72.27
2022-09-03T05:36:32.947Z,72.36
2022-09-03T05:39:01.546Z,72.41
2022-09-03T05:41:32.742Z,72.71
2022-09-03T05:44:01.063Z,73.04
2022-09-03T05:46:33.435Z,73.74
2022-09-03T05:49:02.472Z,73.91
2022-09-03T05:51:32.021Z,74.37
2022-09-03T05:54:00.626Z,74.14
2022-09-03T05:56:32.017Z,73.90
2022-09-03T05:59:04.812Z,73.59
2022-09-03T06:01:36.076Z,74.09
2022-09-03T06:04:05.980Z,73.54
2022-09-03T06:06:35.847Z,73.75
2022-09-03T06:09:06.977Z,74.05
2022-09-03T06:11:37.436Z,73.93
2022-09-03T06:14:08.209Z,73.64
2022-09-03T06:16:40.474Z,73.26
2022-09-03T06:19:10.292Z,73.63
2022-09-03T06:21:42.836Z,73.65
2022-09-03T06:24:13.007Z,73.60
2022-09-03T06:26:43.411Z,73.46
2022-09-03T06:29:12.119Z,73.78
2022-09-03T06:31:41.808Z,73.60
2022-09-03T06:34:10.806Z,73.76
2022-09-03T06:36:41.212Z,74.03
2022-09-03T06:39:09.533Z,74.33
2022-09-03T06:41:38.133Z,73.83
2022-09-03T06:44:11.528Z,74.10
2022-09-03T06:46:43.410Z,74.01
2022-09-03T06:49:12.486Z,74.08
2022-09-03T06:51:41.375Z,73.80
2022-09-03T06:54:11.231Z,74.20
2022-09-03T06:56:41.859Z,73.31
2022-09-03T06:59:12.005Z,73.49
2022-09-03T07:01:44.487Z,73.83
2022-09-03T07:04:19.164Z,73.10
2022-09-03T07:06:47.576Z,73.07
2022-09-03T07:09:18.386Z,73.16
2022-09-03T07:11:48.763Z,73.42
2022-09-03T07:14:18.694Z,73.15
2022-09-03T07:16:47.805Z,72.47
2022-09-03T07:19:17.795Z,72.51
2022-09-03T07:21:49.675Z,72.41
2022-09-03T07:24:21.866Z,71.84
2022-09-03T07:26:50.074Z,71.49
2022-09-03T07:29:20.646Z,71.58
2022-09-03T07:31:51.925Z,70.54
2022-09-03T07:34:26.720Z,70.19
2022-09-03T07:36:55.281Z,69.72
2022-09-03T07:39:23.582Z,69.98
2022-09-03T07:41:51.923Z,69.69
2022-09-03T07:44:20.594Z,70.08
2022-09-03T07:46:51.471Z,69.56
2022-09-03T07:49:22.436Z,69.10
2022-09-03T07:51:54.703Z,69.90
2022-09-03T07:54:24.186Z,69.19
2022-09-03T07:56:52.415Z,68.97
2022-09-03T07:59:21.384Z,68.65
2022-09-03T08:01:50.850Z,68.10
2022-09-03T08:04:19.028Z,68.17
2022-09-03T08:06:48.403Z,68.14
2022-09-03T08:09:16.781Z,67.60
2022-09-03T08:11:45.365Z,66.79
2022-09-03T08:14:15.558Z,66.36
2022-09-03T08:16:45.999Z,66.51
2022-09-03T08:19:14.874Z,65.98
2022-09-03T08:21:43.029Z,65.59
2022-09-03T08:24:13.480Z,65.62
2022-09-03T08:26:47.693Z,65.55
2022-09-03T08:29:19.538Z,64.67
2022-09-03T08:31:47.738Z,65.13
2022-09-03T08:34:17.695Z,65.16
2022-09-03T08:36:47.291Z,65.21
2022-09-03T08:39:17.172Z,65.08
2022-09-03T08:42:27.263Z,65.32
2022-09-03T08:44:58.692Z,64.42
2022-09-03T08:47:34.156Z,65.15
2022-09-03T08:50:09.237Z,65.19
2022-09-03T08:52:42.643Z,65.26
2022-09-03T08:55:21.746Z,64.97
2022-09-03T08:57:52.205Z,64.80
2022-09-03T09:00:20.878Z,64.46
2022-09-03T09:02:59.455Z,64.17
2022-09-03T09:05:42.625Z,63.79
2022-09-03T09:08:21.949Z,63.66
2022-09-03T09:11:02.225Z,63.22
2022-09-03T09:13:40.600Z,64.06
2022-09-03T09:16:17.136Z,63.37
2022-09-03T09:18:57.735Z,62.95
2022-09-03T09:21:31.119Z,62.95
2022-09-03T09:24:04.245Z,62.96
2022-09-03T09:26:34.902Z,62.66
2022-09-03T09:29:07.958Z,61.87
2022-09-03T09:31:39.853Z,61.32
2022-09-03T09:34:09.331Z,61.27
2022-09-03T09:36:43.861Z,61.09
2022-09-03T09:39:15.862Z,60.95
2022-09-03T09:41:57.709Z,61.89
2022-09-03T09:44:27.970Z,60.92
2022-09-03T09:47:06.451Z,61.24
2022-09-03T09:49:36.323Z,60.47
2022-09-03T09:52:09.002Z,60.46
2022-09-03T09:54:37.042Z,60.69
2022-09-03T09:57:08.552Z,60.33
2022-09-03T09:59:38.117Z,60.88
2022-09-03T10:02:22.018Z,61.65
2022-09-03T10:04:50.568Z,60.39
2022-09-03T10:07:30.147Z,60.13
2022-09-03T10:10:02.801Z,59.04
2022-09-03T10:12:38.069Z,58.90
2022-09-03T10:15:16.744Z,59.42
2022-09-03T10:17:58.816Z,59.36
2022-09-03T10:20:37.334Z,59.23
2022-09-03T10:23:15.330Z,59.10
2022-09-03T10:25:58.025Z,58.52
2022-09-03T10:28:30.264Z,58.67
2022-09-03T10:31:11.337Z,58.36
2022-09-03T10:33:44.088Z,58.81
2022-09-03T10:36:20.092Z,58.75
2022-09-03T10:38:54.587Z,59.29
2022-09-03T10:41:39.242Z,58.36
2022-09-03T10:44:23.515Z,59.40
2022-09-03T10:47:03.896Z,59.25
2022-09-03T10:49:50.565Z,58.98
2022-09-03T10:52:28.602Z,58.42
2022-09-03T10:55:23.494Z,58.20
2022-09-03T10:58:02.397Z,58.48
2022-09-03T11:00:35.449Z,58.61
2022-09-03T11:03:30.504Z,58.11
2022-09-03T11:06:06.335Z,58.19
2022-09-03T11:08:38.968Z,58.75
2022-09-03T11:11:14.689Z,58.89
2022-09-03T11:13:48.300Z,60.30
2022-09-03T11:16:22.186Z,59.75
2022-09-03T11:18:52.851Z,60.77
2022-09-03T11:21:24.796Z,59.56
2022-09-03T11:24:02.476Z,59.59
2022-09-03T11:26:31.455Z,60.03
2022-09-03T11:29:04.118Z,59.31
2022-09-03T11:31:43.735Z,59.92
2022-09-03T11:34:23.317Z,60.15
2022-09-03T11:37:08.713Z,60.59
2022-09-03T11:39:40.571Z,60.38
2022-09-03T11:42:13.289Z,60.03
2022-09-03T11:44:47.917Z,60.52
2022-09-03T11:47:25.985Z,60.19
2022-09-03T11:50:06.058Z,60.92
2022-09-03T11:52:40.697Z,61.09
2022-09-03T11:55:10.045Z,60.77
2022-09-03T11:57:43.405Z,61.19
2022-09-03T12:00:14.301Z,61.51
2022-09-03T12:02:49.788Z,62.00
2022-09-03T12:05:27.734Z,65.47
2022-09-03T12:08:35.671Z,69.99
2022-09-03T12:11:25.764Z,71.89
2022-09-03T12:14:00.067Z,71.62
2022-09-03T12:17:00.225Z,72.38
2022-09-03T12:19:38.708Z,73.96
2022-09-03T12:22:07.032Z,74.49
2022-09-03T12:24:37.803Z,75.65
2022-09-03T12:27:06.751Z,75.09
2022-09-03T12:29:34.848Z,75.19
2022-09-03T12:32:10.223Z,74.92
2022-09-03T12:34:39.540Z,75.15
2022-09-03T12:38:04.049Z,76.76
2022-09-03T12:40:19.396Z,78.41
2022-09-03T12:42:47.834Z,77.98
2022-09-03T12:45:21.701Z,78.95
2022-09-03T12:47:50.058Z,79.48
2022-09-03T12:50:21.826Z,80.39
2022-09-03T12:52:53.541Z,81.19
2022-09-03T12:55:30.155Z,81.66
2022-09-03T12:58:04.605Z,82.95
2022-09-03T13:00:35.843Z,83.25
2022-09-03T13:03:08.595Z,83.28
2022-09-03T13:06:01.908Z,83.06
2022-09-03T13:08:34.484Z,79.48
2022-09-03T13:11:05.716Z,80.68
2022-09-03T13:13:37.101Z,82.99
2022-09-03T13:16:19.429Z,81.72
2022-09-03T13:18:54.923Z,82.89
2022-09-03T13:21:37.729Z,83.93
2022-09-03T13:24:30.398Z,84.34
2022-09-03T13:27:08.449Z,80.85
2022-09-03T13:29:49.308Z,82.70
2022-09-03T13:32:34.317Z,79.29
2022-09-03T13:35:09.129Z,81.00
2022-09-03T13:37:41.644Z,80.73
2022-09-03T13:40:19.383Z,79.08
2022-09-03T13:42:55.472Z,79.69
2022-09-03T13:45:31.515Z,78.31
2022-09-03T13:48:25.236Z,78.99
2022-09-03T13:51:01.033Z,80.55
2022-09-03T13:53:42.460Z,78.96
2022-09-03T13:56:21.590Z,81.15
2022-09-03T13:58:54.476Z,77.49
2022-09-03T14:01:28.471Z,78.45
2022-09-03T14:04:00.955Z,76.90
2022-09-03T14:06:42.080Z,76.88
2022-09-03T14:09:21.728Z,76.78
2022-09-03T14:11:56.102Z,77.96
2022-09-03T14:14:39.060Z,77.63
2022-09-03T14:17:15.426Z,77.76
2022-09-03T14:19:49.806Z,78.04
2022-09-03T14:22:24.307Z,77.06
2022-09-03T14:24:59.331Z,77.97
2022-09-03T14:27:29.272Z,77.05
2022-09-03T14:30:02.849Z,75.71
2022-09-03T14:32:41.329Z,77.87
2022-09-03T14:35:36.865Z,78.25
2022-09-03T14:38:30.301Z,78.45
2022-09-03T14:41:06.372Z,78.55
2022-09-03T14:43:58.391Z,77.80
2022-09-03T14:46:49.905Z,77.14
2022-09-03T14:49:44.938Z,76.46
2022-09-03T14:52:32.676Z,75.11
2022-09-03T14:55:14.460Z,76.65
2022-09-03T14:58:08.237Z,75.18
2022-09-03T15:00:48.481Z,75.33
2022-09-03T15:04:00.176Z,75.68
2022-09-03T15:06:42.041Z,76.49
2022-09-03T15:09:25.555Z,76.77
2022-09-03T15:11:58.871Z,77.18
2022-09-03T15:14:36.683Z,72.94
2022-09-03T15:17:29.345Z,72.35
2022-09-03T15:20:11.810Z,73.43
2022-09-03T15:23:02.834Z,73.37
2022-09-03T15:25:42.599Z,73.54
2022-09-03T15:28:16.411Z,72.96
2022-09-03T15:30:53.277Z,71.39
2022-09-03T15:33:28.627Z,72.97
2022-09-03T15:36:08.006Z,73.00
2022-09-03T15:38:42.650Z,73.00
2022-09-03T15:41:22.714Z,73.76
2022-09-03T15:43:52.499Z,71.48
2022-09-03T15:46:48.423Z,71.97
2022-09-03T15:49:28.978Z,74.52
2022-09-03T15:52:17.244Z,71.96
2022-09-03T15:54:54.464Z,72.07
2022-09-03T15:57:30.033Z,72.11
2022-09-03T16:00:04.294Z,71.85
2022-09-03T16:02:43.974Z,71.86
2022-09-03T16:05:18.091Z,71.43
2022-09-03T16:08:07.880Z,71.43
2022-09-03T16:10:51.057Z,70.89
2022-09-03T16:13:36.967Z,72.47
2022-09-03T16:16:08.020Z,72.10
2022-09-03T16:18:43.170Z,72.80
2022-09-03T16:21:25.794Z,72.73
2022-09-03T16:23:59.894Z,73.38
2022-09-03T16:26:33.748Z,73.79
2022-09-03T16:29:08.218Z,74.95
2022-09-03T16:31:48.041Z,74.43
2022-09-03T16:34:26.821Z,74.70
2022-09-03T16:37:05.474Z,74.04
2022-09-03T16:39:48.260Z,74.49
2022-09-03T16:42:28.177Z,74.28
2022-09-03T16:45:07.917Z,73.48
2022-09-03T16:47:48.575Z,73.89
2022-09-03T16:50:31.834Z,73.40
2022-09-03T16:53:12.725Z,71.85
2022-09-03T16:55:59.377Z,72.15
2022-09-03T16:58:35.322Z,72.31
2022-09-03T17:01:15.956Z,72.92
2022-09-03T17:03:59.126Z,74.37
2022-09-03T17:06:42.704Z,74.30
2022-09-03T17:09:26.014Z,75.25
2022-09-03T17:12:03.482Z,75.49
2022-09-03T17:15:00.423Z,75.74
2022-09-03T17:17:41.812Z,75.24
2022-09-03T17:20:16.369Z,74.93
2022-09-03T17:23:00.639Z,75.28
2022-09-03T17:25:35.619Z,76.45
2022-09-03T17:28:24.813Z,75.88
2022-09-03T17:30:58.248Z,76.27
2022-09-03T17:33:50.610Z,76.42
2022-09-03T17:36:24.414Z,76.99
2022-09-03T17:39:36.193Z,77.24
2022-09-03T17:42:08.958Z,77.00
2022-09-03T17:44:51.350Z,78.47
2022-09-03T17:47:42.635Z,78.96
2022-09-03T17:50:19.095Z,79.50
2022-09-03T17:52:52.424Z,79.70
2022-09-03T17:55:31.140Z,80.04
2022-09-03T17:58:07.689Z,80.72
2022-09-03T18:00:42.899Z,80.57
2022-09-03T18:03:18.227Z,81.41
2022-09-03T18:05:54.794Z,81.62
2022-09-03T18:08:32.081Z,81.72
2022-09-03T18:11:10.148Z,82.11
2022-09-03T18:13:51.473Z,82.97
2022-09-03T18:16:26.495Z,82.86
2022-09-03T18:19:01.690Z,83.52
2022-09-03T18:21:53.930Z,84.07
2022-09-03T18:24:51.124Z,83.40
2022-09-03T18:27:44.588Z,83.53
2022-09-03T18:30:33.099Z,83.53
2022-09-03T18:33:18.780Z,84.42
2022-09-03T18:36:05.707Z,83.83
2022-09-03T18:38:53.092Z,84.04
2022-09-03T18:42:09.874Z,84.54
2022-09-03T18:45:21.491Z,84.56
2022-09-03T18:48:22.347Z,84.62
2022-09-03T18:51:17.039Z,84.88
2022-09-03T18:54:11.498Z,84.47
2022-09-03T18:57:03.442Z,85.11
2022-09-03T19:00:07.530Z,85.28
2022-09-03T19:03:05.116Z,85.18
2022-09-03T19:06:01.480Z,85.41
2022-09-03T19:08:55.689Z,85.03
2022-09-03T19:11:50.209Z,85.71
2022-09-03T19:14:48.607Z,85.53
2022-09-03T19:17:41.856Z,85.40
2022-09-03T19:20:32.934Z,85.35
2022-09-03T19:23:18.638Z,85.42
2022-09-03T19:26:04.470Z,85.35
2022-09-03T19:28:54.058Z,85.43
2022-09-03T19:31:56.793Z,85.26
2022-09-03T19:35:05.004Z,85.65
2022-09-03T19:37:55.911Z,85.37
2022-09-03T19:41:12.053Z,85.53
2022-09-03T19:44:11.480Z,85.46
2022-09-03T19:47:05.579Z,85.62
2022-09-03T19:50:13.551Z,86.37
2022-09-03T19:53:07.615Z,86.59
2022-09-03T19:55:57.834Z,86.60
2022-09-03T19:58:47.497Z,86.23
2022-09-03T20:01:33.531Z,86.66
2022-09-03T20:04:24.334Z,86.91
2022-09-03T20:07:11.092Z,86.68
2022-09-03T20:10:01.261Z,86.76
2022-09-03T20:12:34.858Z,86.79
2022-09-03T20:15:04.971Z,86.46
2022-09-03T20:17:41.064Z,86.46
2022-09-03T20:20:17.243Z,86.76
2022-09-03T20:22:57.048Z,86.68
2022-09-03T20:25:41.796Z,86.69
2022-09-03T20:28:25.050Z,86.99
2022-09-03T20:31:00.351Z,87.01
2022-09-03T20:33:42.170Z,86.87
2022-09-03T20:36:21.402Z,86.49
2022-09-03T20:39:31.137Z,86.52
2022-09-03T20:42:15.064Z,86.64
2022-09-03T20:44:57.133Z,87.13
2022-09-03T20:48:00.037Z,87.18
2022-09-03T20:50:43.273Z,87.21
2022-09-03T20:53:44.681Z,87.35
2022-09-03T20:56:18.610Z,86.98
2022-09-03T20:58:55.511Z,87.36
2022-09-03T21:01:31.872Z,87.54
2022-09-03T21:04:13.959Z,88.17
2022-09-03T21:06:49.612Z,87.08
2022-09-03T21:09:24.247Z,87.49
2022-09-03T21:12:01.705Z,87.47
2022-09-03T21:14:35.876Z,86.76
2022-09-03T21:17:29.589Z,87.11
2022-09-03T21:20:13.102Z,87.11
2022-09-03T21:22:52.730Z,87.28
2022-09-03T21:25:25.354Z,87.54
2022-09-03T21:27:59.100Z,88.63
2022-09-03T21:30:31.149Z,88.71
2022-09-03T21:33:05.752Z,89.13
2022-09-03T21:35:37.276Z,89.84
2022-09-03T21:38:08.526Z,89.61
2022-09-03T21:40:46.777Z,90.61
2022-09-03T21:43:20.524Z,89.62
2022-09-03T21:45:58.475Z,89.96
2022-09-03T21:48:35.204Z,90.26
2022-09-03T21:51:08.392Z,91.51
2022-09-03T21:53:43.233Z,91.53
2022-09-03T21:56:32.851Z,91.33
2022-09-03T21:59:10.289Z,91.15
2022-09-03T22:01:50.248Z,90.81
2022-09-03T22:04:18.704Z,90.69
2022-09-03T22:06:54.672Z,90.68
2022-09-03T22:09:30.119Z,90.65
2022-09-03T22:12:07.448Z,90.63
2022-09-03T22:14:43.176Z,90.55
2022-09-03T22:17:18.559Z,90.55
2022-09-03T22:19:46.715Z,90.66
2022-09-03T22:22:22.662Z,90.63
2022-09-03T22:24:58.875Z,90.94
2022-09-03T22:27:35.593Z,90.62
2022-09-03T22:30:07.509Z,90.81
2022-09-03T22:32:49.867Z,90.83
2022-09-03T22:35:42.840Z,90.70
2022-09-03T22:38:38.067Z,90.64
2022-09-03T22:41:21.778Z,90.76
2022-09-03T22:43:58.687Z,90.36
2022-09-03T22:46:34.292Z,90.31
2022-09-03T22:49:27.226Z,90.46
2022-09-03T22:52:08.977Z,90.26
2022-09-03T22:54:53.593Z,90.53
2022-09-03T22:57:25.249Z,89.97
2022-09-03T23:00:05.289Z,89.87
2022-09-03T23:02:33.672Z,90.14
2022-09-03T23:05:08.108Z,89.97
2022-09-03T23:07:49.491Z,90.46
2022-09-03T23:10:25.784Z,90.25
2022-09-03T23:13:04.754Z,89.95
2022-09-03T23:15:35.707Z,90.25
2022-09-03T23:18:08.939Z,90.26
2022-09-03T23:20:42.382Z,90.36
2022-09-03T23:23:18.019Z,90.26
2022-09-03T23:25:50.741Z,90.30
2022-09-03T23:28:24.176Z,90.17
2022-09-03T23:30:52.884Z,89.77
2022-09-03T23:33:21.068Z,89.19
2022-09-03T23:36:03.232Z,89.38
2022-09-03T23:38:42.119Z,89.42
2022-09-03T23:41:22.915Z,89.92
2022-09-03T23:44:11.816Z,89.50
2022-09-03T23:46:54.763Z,89.85
2022-09-03T23:49:34.673Z,89.36
2022-09-03T23:52:23.626Z,89.28
2022-09-03T23:55:02.338Z,89.59
2022-09-03T23:57:39.445Z,89.29
